LGTSLATI

Guest
Details From LGTS - Thessalonik Makedonia
To LATI - Tirana Rinas
Flight Number -
Tags generated
Created
Modified
Stats Distance 157 nm / 291 km
Max Altitude 16,300 ft / 4,968 m
Waypoints 3
Social Downloads 0
Likes 0
Share

Download

Looking for another format? Having issues loading an existing format? Contact us
Advertisement - Login to hide

Notes

Basic altitude profile: - Ascent Rate: 2500ft/min - Ascent Speed: 250kts - Cruise Altitude: 35000ft - Cruise Speed: 420kts - Descent Rate: 1500ft/min - Descent Speed: 250kts Options: - Use NATs: yes - Use PACOTS: yes - Use low airways: yes - Use high airways: yes

Route

LGTS BITLA LATI

ID Type Via Altitude (ft/m) Position (lat/lon) Dist (leg/tot) Name
O LGTS APT - 0 / 0 40.51952 / 22.97202 - / 0 nm Thessalonik Makedonia
BITLA FIX - 16,300 / 4,968 40.87556 / 21.35806 76 / 76 nm
O LATI APT - 0 / 0 41.41473 / 19.72057 80 / 157 nm Tirana Rinas

Altitude Profile

Advertisement - Login to hide

LGTS

Details ICAO LGTS (SKG)
Name Thessaloniki Makedonia International Airport
Region Greece
Timezone Europe/Athens (UTC+3.0)
Stats Elevation 21 ft / 6 m (AMSL)
Location 40.520100° 22.969100°
Runways 2
Magnetic Variation 4.911° E

METAR

LGTS 240750Z 30005KT 9999 FEW025 16/12 Q1018 NOSIG

Decode

TAF

TAF LGTS 240500Z 2406/2506 VRB03KT CAVOK

Decode

Departure Runways

ID Width Length Bearing (true/mag) Surface Threshold Overrun Markings Lighting
10 164 ft / 50 m 11,259 ft / 3,432 m 103.98° / 99.07° ASPHALT 0 ft / 0 m 0 ft / 0 m PREC-APP CENTERLINE EDGE THRESHOLD SALS
16 200 ft / 61 m 7,975 ft / 2,431 m 166.43° / 161.52° ASPHALT 0 ft / 0 m 0 ft / 0 m PREC-APP CENTERLINE EDGE THRESHOLD ALSF-II TDZ
28 164 ft / 50 m 11,259 ft / 3,432 m 284.01° / 279.10° ASPHALT 0 ft / 0 m 0 ft / 0 m PREC-APP CENTERLINE EDGE THRESHOLD ALSF-I
34 200 ft / 61 m 7,975 ft / 2,431 m 346.44° / 341.52° ASPHALT 0 ft / 0 m 0 ft / 0 m PREC-APP CENTERLINE EDGE THRESHOLD SALS

LATI

Details ICAO LATI (TIA)
Name Tirana Intl. - Mother Teresa
Region Albania
Timezone Europe/Tirane (UTC+2.0)
Stats Elevation 125 ft / 38 m (AMSL)
Location 41.414700° 19.720600°
Runways 1
Magnetic Variation 4.526° E

METAR

LATI 240750Z 18004KT 9999 BKN150 14/10 Q1019 NOSIG

Decode

TAF

TAF TAF LATI 240500Z 2406/2506 VRB05KT CAVOK TX21/2412Z TN10/2504Z BECMG 2417/2419 16010KT SCT040 BKN080 PROB40 TEMPO 2422/2506 -TSRA FEW030CB BKN050

Decode

Destination Runways

ID Width Length Bearing (true/mag) Surface Threshold Overrun Markings Lighting
17 148 ft / 45 m 8,981 ft / 2,738 m 174.35° / 169.82° ASPHALT 0 ft / 0 m 0 ft / 0 m PREC-APP EDGE THRESHOLD SSALR REIL-OMNI
35 148 ft / 45 m 8,981 ft / 2,738 m 354.35° / 349.82° ASPHALT 0 ft / 0 m 0 ft / 0 m PREC-APP EDGE THRESHOLD MALS REIL-OMNI

Approach Navaids

Runway Type Ident Frequency Range Bearing (true/mag) Slope Elevation
17 GS ITR 110.30 MHz 10 nm / 19 km 174.35° / 169.82 ° 3.02° 125 ft / 38 m (AMSL)
17 LOC-ILS ITR 110.30 MHz 18 nm / 33 km 174.35° / 169.82 ° - 125 ft / 38 m (AMSL)

Popular Alternatives